Terminal Aerodrome Forecast
Issued by NWS Corpus Christi, TX

Home | Current Version | Previous Version | Text Only | Print | Product List | Glossary On
Versions: 1 2 3 4 5 6 7 8 9 10 11 12 13 14
000
FTUS44 KCRP 310500
TAFCRP
TAF
KCRP 310535Z 3106/0106 17009KT P6SM FEW020
      TEMPO 3107/3111 BKN018
     FM311100 17005KT P6SM SCT015
      TEMPO 3111/3115 BKN015
     FM311500 16014G19KT P6SM SCT025
     FM311900 14018G23KT P6SM FEW040 SCT250
     FM010400 16012KT P6SM FEW020 BKN250=

USA.gov is the U.S. government's official web portal to all federal, state and local government web resources and services.